Time;durP1;ratioP1;P1;durP2;ratioP2;P2;SDS_P1;SDS_P2;PMS_P1;PMS_P2;Temp;Humidity;BMP_temperature;BMP_pressure;BME280_temperature;BME280_humidity;BME280_pressure;Samples;Min_cycle;Max_cycle;Signal;HPM_P1;HPM_P2
2021/05/25 00:00:49;;;;;;;3.17;2.10;;;;;;;10.65;100.00;96247.13;5026866;28;20088;-54
2021/05/25 00:03:17;;;;;;;2.05;1.83;;;;;;;10.63;100.00;96255.22;5025774;28;20064;-58
2021/05/25 00:05:45;;;;;;;2.50;2.30;;;;;;;10.62;100.00;96258.81;5026461;28;20388;-56
2021/05/25 00:08:13;;;;;;;1.58;1.48;;;;;;;10.45;100.00;96270.16;5024129;28;20053;-56
2021/05/25 00:10:42;;;;;;;2.67;1.90;;;;;;;10.59;100.00;96272.28;5010903;28;21477;-52
2021/05/25 00:13:10;;;;;;;2.85;2.20;;;;;;;10.58;100.00;96297.00;5023119;28;20166;-58
2021/05/25 00:15:38;;;;;;;3.20;2.30;;;;;;;10.36;100.00;96292.16;5032196;28;20072;-55
2021/05/25 00:18:07;;;;;;;2.38;1.80;;;;;;;10.04;100.00;96297.81;5025211;28;20073;-57
2021/05/25 00:20:35;;;;;;;2.65;1.92;;;;;;;9.92;100.00;96299.81;5025380;28;20072;-58
2021/05/25 00:23:03;;;;;;;2.10;1.90;;;;;;;9.97;100.00;96308.91;5025137;28;20761;-53
2021/05/25 00:25:32;;;;;;;2.10;1.85;;;;;;;10.01;100.00;96290.19;5022179;28;20065;-53
2021/05/25 00:28:00;;;;;;;2.33;1.80;;;;;;;9.92;100.00;96300.63;5024268;28;20080;-55
2021/05/25 00:30:28;;;;;;;2.42;2.22;;;;;;;9.93;100.00;96296.19;5027321;28;20527;-54
2021/05/25 00:33:14;;;;;;;2.75;1.95;;;;;;;10.05;100.00;96291.56;5027205;28;20127;-57
2021/05/25 00:35:43;;;;;;;2.42;2.10;;;;;;;9.99;100.00;96285.09;5021115;28;20065;-55
2021/05/25 00:38:11;;;;;;;1.85;1.75;;;;;;;10.05;100.00;96287.16;5025613;28;20641;-51
2021/05/25 00:40:41;;;;;;;3.05;2.00;;;;;;;10.05;100.00;96292.41;5025398;28;20064;-51
2021/05/25 00:43:09;;;;;;;2.60;2.08;;;;;;;9.94;100.00;96292.56;5024566;28;20077;-58
2021/05/25 00:45:37;;;;;;;2.03;1.83;;;;;;;10.00;100.00;96292.00;5028156;28;20083;-53
2021/05/25 00:48:06;;;;;;;2.25;2.00;;;;;;;9.93;100.00;96297.03;5026707;28;20152;-58
2021/05/25 00:50:36;;;;;;;3.42;2.13;;;;;;;10.10;100.00;96290.16;5023252;28;20072;-53
2021/05/25 00:53:05;;;;;;;1.83;1.73;;;;;;;9.87;100.00;96291.50;5019838;28;20119;-58
2021/05/25 00:55:35;;;;;;;3.88;2.10;;;;;;;9.93;100.00;96304.09;5021212;28;20073;-51
2021/05/25 00:58:05;;;;;;;2.42;2.22;;;;;;;9.91;100.00;96304.25;5024460;28;21882;-55
2021/05/25 01:00:34;;;;;;;2.20;2.00;;;;;;;9.90;100.00;96289.41;5023498;28;20077;-53
2021/05/25 01:03:02;;;;;;;3.22;1.90;;;;;;;9.98;100.00;96288.72;5026134;28;20068;-54
2021/05/25 01:05:31;;;;;;;1.80;1.70;;;;;;;9.90;100.00;96288.59;5022822;28;20057;-56
2021/05/25 01:08:00;;;;;;;2.38;1.88;;;;;;;10.09;100.00;96290.31;5025677;28;20072;-54
2021/05/25 01:10:49;;;;;;;5.30;2.03;;;;;;;10.22;100.00;96296.09;5021746;28;20526;-55
2021/05/25 01:13:41;;;;;;;3.78;2.08;;;;;;;10.07;100.00;96314.16;5027534;28;20077;-55
2021/05/25 01:16:09;;;;;;;2.65;2.17;;;;;;;10.04;100.00;96303.91;5025350;28;20088;-57
2021/05/25 01:18:38;;;;;;;2.83;2.00;;;;;;;9.85;100.00;96299.56;5028968;28;20463;-57
2021/05/25 01:21:08;;;;;;;3.50;1.95;;;;;;;9.88;100.00;96301.91;5024897;28;20460;-57
2021/05/25 01:23:37;;;;;;;;;;;;;;;10.03;100.00;96286.44;5024590;28;20073;-56
2021/05/25 01:26:05;;;;;;;4.13;2.13;;;;;;;9.87;100.00;96281.78;5020970;28;20006;-54
2021/05/25 01:28:34;;;;;;;2.13;1.92;;;;;;;9.96;100.00;96275.66;5026022;28;20065;-58
2021/05/25 01:31:04;;;;;;;2.05;1.92;;;;;;;10.03;100.00;96280.34;5023949;28;20084;-57
2021/05/25 01:33:35;;;;;;;3.17;1.83;;;;;;;9.89;100.00;96286.94;5025847;28;20081;-57
2021/05/25 01:36:04;;;;;;;2.20;2.03;;;;;;;9.96;100.00;96288.84;5020768;28;20510;-56
2021/05/25 01:38:33;;;;;;;2.20;2.00;;;;;;;9.90;100.00;96285.94;5022064;28;20096;-54
2021/05/25 01:41:02;;;;;;;3.22;1.98;;;;;;;9.79;100.00;96297.50;5024696;28;20519;-56
2021/05/25 01:43:30;;;;;;;2.17;1.83;;;;;;;10.01;100.00;96288.38;5021385;28;20068;-56
2021/05/25 01:45:58;;;;;;;2.22;2.03;;;;;;;9.98;100.00;96288.72;5021739;28;20085;-51
2021/05/25 01:48:26;;;;;;;2.45;2.08;;;;;;;9.84;100.00;96279.47;5025620;28;20073;-52
2021/05/25 01:50:54;;;;;;;5.75;2.10;;;;;;;9.88;100.00;96290.53;5026177;28;20531;-50
2021/05/25 01:53:26;;;;;;;5.10;2.00;;;;;;;9.79;100.00;96294.84;5001704;28;20069;-51
2021/05/25 01:55:56;;;;;;;2.75;1.90;;;;;;;9.71;100.00;96295.59;5023790;28;20065;-54
2021/05/25 01:58:27;;;;;;;4.15;2.00;;;;;;;9.74;100.00;96305.00;5021357;28;20356;-57
2021/05/25 02:00:58;;;;;;;2.75;1.90;;;;;;;9.92;100.00;96308.53;5024608;28;20413;-53
2021/05/25 02:03:26;;;;;;;2.80;1.90;;;;;;;9.66;100.00;96321.50;5025128;28;20041;-57
2021/05/25 02:05:54;;;;;;;2.40;2.00;;;;;;;9.71;100.00;96329.00;5008638;28;20407;-57
2021/05/25 02:08:22;;;;;;;3.90;2.30;;;;;;;9.78;100.00;96323.97;5023850;28;20065;-58
2021/05/25 02:10:53;;;;;;;2.33;2.00;;;;;;;9.85;100.00;96322.44;5023826;28;20065;-57
2021/05/25 02:13:23;;;;;;;2.67;2.05;;;;;;;9.81;100.00;96307.91;5021568;28;20061;-56
2021/05/25 02:15:53;;;;;;;2.13;1.93;;;;;;;10.02;100.00;96310.31;5007765;28;20077;-55
2021/05/25 02:18:24;;;;;;;3.50;2.30;;;;;;;9.86;100.00;96309.13;5021321;28;20567;-57
2021/05/25 02:20:54;;;;;;;3.85;2.20;;;;;;;9.93;100.00;96330.44;5025670;28;20092;-56
2021/05/25 02:23:23;;;;;;;4.63;2.50;;;;;;;9.85;100.00;96325.91;5019749;28;20088;-56
2021/05/25 02:25:51;;;;;;;2.17;1.95;;;;;;;9.81;100.00;96334.25;5020204;28;20073;-57
2021/05/25 02:28:19;;;;;;;2.20;2.10;;;;;;;9.68;100.00;96347.69;5016462;28;20065;-58
2021/05/25 02:30:48;;;;;;;3.15;2.13;;;;;;;9.75;100.00;96344.34;5024476;28;20088;-55
2021/05/25 02:33:18;;;;;;;3.80;1.95;;;;;;;9.80;100.00;96329.91;5023225;28;20072;-55
2021/05/25 02:35:48;;;;;;;2.85;1.98;;;;;;;9.69;100.00;96331.75;5018645;28;20815;-57
2021/05/25 02:38:16;;;;;;;2.70;2.17;;;;;;;9.71;100.00;96342.16;5022496;28;20076;-57
2021/05/25 02:40:45;;;;;;;4.00;2.10;;;;;;;9.67;100.00;96348.66;5021159;28;20069;-57
2021/05/25 02:43:15;;;;;;;3.72;2.30;;;;;;;9.87;100.00;96331.84;5020440;28;20065;-58
2021/05/25 02:45:43;;;;;;;2.13;1.90;;;;;;;9.78;100.00;96342.41;5023126;28;20077;-52
2021/05/25 02:48:12;;;;;;;2.80;1.80;;;;;;;9.88;100.00;96345.84;5021818;28;20065;-54
2021/05/25 02:50:41;;;;;;;2.40;2.20;;;;;;;9.87;100.00;96344.19;5020995;28;20479;-58
2021/05/25 02:53:10;;;;;;;8.00;2.40;;;;;;;10.02;100.00;96341.94;5028203;28;20562;-54
2021/05/25 02:55:40;;;;;;;3.25;1.92;;;;;;;9.73;100.00;96345.47;5024403;28;20069;-56
2021/05/25 02:58:09;;;;;;;4.30;1.90;;;;;;;9.93;100.00;96348.88;5012741;28;20068;-58
2021/05/25 03:00:38;;;;;;;2.72;2.25;;;;;;;9.89;100.00;96368.59;5026861;28;20089;-54
2021/05/25 03:03:07;;;;;;;2.92;1.95;;;;;;;9.81;100.00;96363.19;5028484;28;20563;-57
2021/05/25 03:05:36;;;;;;;3.30;2.13;;;;;;;9.75;100.00;96356.69;5021871;28;20072;-57
2021/05/25 03:08:07;;;;;;;3.35;2.10;;;;;;;9.89;100.00;96350.97;5026781;28;20068;-58
2021/05/25 03:10:37;;;;;;;2.38;2.00;;;;;;;9.68;100.00;96347.69;5021981;28;20111;-57
2021/05/25 03:13:22;;;;;;;2.28;1.90;;;;;;;9.73;100.00;96359.44;5022151;28;20080;-57
2021/05/25 03:15:51;;;;;;;2.70;1.70;;;;;;;9.84;100.00;96355.00;5025636;28;20073;-58
2021/05/25 03:18:19;;;;;;;3.35;1.90;;;;;;;9.82;100.00;96362.22;5026530;28;20467;-58
2021/05/25 03:20:49;;;;;;;3.92;1.98;;;;;;;9.81;100.00;96364.03;5024963;28;20084;-57
2021/05/25 03:23:18;;;;;;;3.70;2.25;;;;;;;9.83;100.00;96369.13;5010167;28;20527;-56
2021/05/25 03:25:48;;;;;;;2.50;1.80;;;;;;;9.75;100.00;96368.06;5021417;28;20072;-58
2021/05/25 03:28:16;;;;;;;2.97;1.92;;;;;;;9.63;100.00;96374.44;5028505;28;20080;-54
2021/05/25 03:30:44;;;;;;;4.57;2.00;;;;;;;9.85;100.00;96369.84;5027404;28;20092;-56
2021/05/25 03:33:12;;;;;;;4.55;1.90;;;;;;;9.81;100.00;96376.38;5030751;28;20562;-56
2021/05/25 03:35:40;;;;;;;4.43;2.28;;;;;;;9.77;100.00;96369.69;5021252;28;20078;-59
2021/05/25 03:38:26;;;;;;;2.30;1.90;;;;;;;9.84;100.00;96378.69;5025715;28;20079;-59
2021/05/25 03:40:54;;;;;;;3.15;2.28;;;;;;;9.56;100.00;96386.50;5025686;28;20351;-56
2021/05/25 03:43:22;;;;;;;6.10;2.13;;;;;;;9.69;100.00;96379.13;5023217;28;20065;-58
2021/05/25 03:45:50;;;;;;;3.22;2.05;;;;;;;9.66;100.00;96371.53;5025724;28;20550;-59
2021/05/25 03:48:18;;;;;;;5.05;2.15;;;;;;;9.53;100.00;96365.72;5026558;28;21263;-56
2021/05/25 03:50:46;;;;;;;2.60;2.20;;;;;;;9.67;100.00;96364.44;5028150;28;20069;-59
2021/05/25 03:53:14;;;;;;;2.63;1.80;;;;;;;9.52;100.00;96364.88;5022739;28;20080;-57
2021/05/25 03:55:49;;;;;;;3.97;2.08;;;;;;;9.56;100.00;96370.69;5023627;28;20180;-59
2021/05/25 04:01:04;;;;;;;4.95;2.10;;;;;;;9.57;100.00;96366.28;5025617;28;20085;-55
2021/05/25 04:03:34;;;;;;;3.75;2.10;;;;;;;9.56;100.00;96386.50;5023183;28;20080;-57
2021/05/25 04:06:02;;;;;;;5.60;2.70;;;;;;;9.69;100.00;96397.56;5020624;28;20069;-55
2021/05/25 04:08:30;;;;;;;3.38;2.38;;;;;;;9.53;100.00;96389.41;5020788;28;20065;-58
2021/05/25 04:11:00;;;;;;;3.13;2.20;;;;;;;9.67;100.00;96389.00;5023317;28;20087;-58
2021/05/25 04:13:29;;;;;;;4.05;2.03;;;;;;;9.45;100.00;96382.22;5023328;28;20060;-58
2021/05/25 04:15:57;;;;;;;2.40;2.10;;;;;;;9.58;100.00;96374.03;5027402;28;20061;-59
2021/05/25 04:18:25;;;;;;;5.72;2.17;;;;;;;9.62;100.00;96382.50;5009200;28;20041;-57
2021/05/25 04:20:54;;;;;;;6.57;2.25;;;;;;;9.72;100.00;96378.88;5024257;28;20413;-58
2021/05/25 04:23:22;;;;;;;4.35;2.40;;;;;;;9.57;100.00;96385.56;5021171;28;20227;-59
2021/05/25 04:25:51;;;;;;;5.10;2.45;;;;;;;9.77;100.00;96386.31;5026377;28;20080;-59
2021/05/25 04:28:20;;;;;;;5.60;2.17;;;;;;;9.86;100.00;96387.28;5015651;28;20077;-59
2021/05/25 04:30:48;;;;;;;3.80;1.98;;;;;;;9.97;100.00;96401.13;5025467;28;20057;-56
2021/05/25 04:33:16;;;;;;;4.25;2.15;;;;;;;9.83;100.00;96411.28;5021803;28;23051;-55
2021/05/25 04:35:44;;;;;;;4.45;2.20;;;;;;;9.73;100.00;96400.75;5025119;28;20076;-58
2021/05/25 04:38:13;;;;;;;5.10;2.28;;;;;;;9.62;100.00;96422.81;5030203;28;20482;-58
2021/05/25 04:40:42;;;;;;;4.50;1.80;;;;;;;9.74;100.00;96412.97;5005082;28;20593;-59
2021/05/25 04:43:10;;;;;;;5.60;2.20;;;;;;;9.62;100.00;96409.63;5009210;28;20048;-58
2021/05/25 04:45:41;;;;;;;3.72;2.20;;;;;;;9.56;100.00;96420.72;5023967;28;20096;-51
2021/05/25 04:48:27;;;;;;;3.58;1.83;;;;;;;9.76;100.00;96411.00;5024177;28;20489;-59
2021/05/25 04:50:55;;;;;;;3.70;2.08;;;;;;;9.66;100.00;96416.28;5024695;28;20092;-58
2021/05/25 04:53:23;;;;;;;4.32;2.00;;;;;;;9.63;100.00;96411.28;5025089;28;20069;-59
2021/05/25 04:55:51;;;;;;;6.85;1.90;;;;;;;9.76;100.00;96413.66;5024229;28;20041;-58
2021/05/25 04:58:20;;;;;;;3.10;2.13;;;;;;;9.68;100.00;96411.72;5024660;28;20518;-57
2021/05/25 05:00:49;;;;;;;4.10;2.03;;;;;;;9.71;100.00;96414.06;5025896;28;20092;-56
2021/05/25 05:03:18;;;;;;;3.78;2.15;;;;;;;9.82;100.00;96415.72;5025124;28;20271;-58
2021/05/25 05:05:46;;;;;;;3.90;1.88;;;;;;;9.94;100.00;96416.38;5022145;28;20076;-57
2021/05/25 05:08:14;;;;;;;4.57;2.33;;;;;;;9.99;100.00;96414.16;5026083;28;20076;-55
2021/05/25 05:10:42;;;;;;;4.82;1.80;;;;;;;10.01;100.00;96419.28;5024827;28;20460;-58
2021/05/25 05:13:10;;;;;;;4.47;1.90;;;;;;;10.04;100.00;96421.63;5021060;28;20092;-59
2021/05/25 05:15:38;;;;;;;4.55;1.80;;;;;;;10.05;100.00;96425.91;5023057;28;20081;-59
2021/05/25 05:18:07;;;;;;;4.55;2.00;;;;;;;9.95;100.00;96437.34;5027665;28;20076;-56
2021/05/25 05:20:39;;;;;;;2.28;1.83;;;;;;;9.84;100.00;96439.28;5023363;28;20080;-56
2021/05/25 05:23:07;;;;;;;4.50;1.77;;;;;;;9.88;100.00;96428.34;5025570;28;20076;-57
2021/05/25 05:25:36;;;;;;;5.25;1.73;;;;;;;9.98;100.00;96428.31;5023564;28;20440;-59
2021/05/25 05:28:04;;;;;;;5.65;1.90;;;;;;;10.05;100.00;96432.06;5024838;28;20084;-55
2021/05/25 05:30:33;;;;;;;3.97;2.05;;;;;;;9.98;100.00;96425.69;5019683;28;20586;-56
2021/05/25 05:33:01;;;;;;;3.28;1.65;;;;;;;10.03;100.00;96428.72;5026860;28;20072;-56
2021/05/25 05:35:30;;;;;;;2.28;1.60;;;;;;;10.19;100.00;96422.88;5021462;28;20543;-53
2021/05/25 05:37:58;;;;;;;3.60;1.70;;;;;;;10.21;100.00;96418.25;5025132;28;20068;-56
2021/05/25 05:40:26;;;;;;;5.70;2.15;;;;;;;10.21;100.00;96418.25;5024386;28;20538;-56
2021/05/25 05:43:06;;;;;;;3.90;1.73;;;;;;;10.16;100.00;96426.59;5024640;28;20089;-54
2021/05/25 05:45:34;;;;;;;2.92;1.80;;;;;;;10.10;100.00;96416.63;5026125;28;20073;-57
2021/05/25 05:48:04;;;;;;;2.17;1.48;;;;;;;10.28;100.00;96431.72;5024428;28;20065;-53
2021/05/25 05:50:33;;;;;;;2.88;2.10;;;;;;;10.18;100.00;96439.63;5024490;28;20073;-56
2021/05/25 05:53:01;;;;;;;4.32;2.00;;;;;;;10.37;100.00;96439.63;5023309;28;20065;-57
2021/05/25 05:55:29;;;;;;;4.75;1.70;;;;;;;10.12;100.00;96438.41;5023303;28;20068;-56
2021/05/25 05:57:58;;;;;;;3.35;1.80;;;;;;;10.18;100.00;96432.53;5017126;28;20083;-57
2021/05/25 06:00:26;;;;;;;3.95;1.95;;;;;;;10.08;100.00;96433.53;5029392;28;20077;-56
2021/05/25 06:03:12;;;;;;;2.28;1.40;;;;;;;10.22;100.00;96452.41;5022183;28;20068;-56
2021/05/25 06:05:41;;;;;;;3.90;1.58;;;;;;;10.10;100.00;96450.88;5023149;28;20068;-55
2021/05/25 06:08:27;;;;;;;5.68;1.90;;;;;;;10.52;100.00;96453.16;5022809;28;20062;-56
2021/05/25 06:10:55;;;;;;;3.90;1.70;;;;;;;10.42;100.00;96458.44;5022314;28;20067;-52
2021/05/25 06:13:40;;;;;;;5.20;2.42;;;;;;;10.41;100.00;96454.16;5020014;28;20072;-56
2021/05/25 06:16:08;;;;;;;5.70;1.70;;;;;;;10.78;100.00;96458.63;5028181;28;20074;-57
2021/05/25 06:18:37;;;;;;;2.95;1.50;;;;;;;10.85;100.00;96449.13;5026197;28;20081;-57
2021/05/25 06:21:06;;;;;;;4.20;1.42;;;;;;;11.14;100.00;96464.78;5024183;28;20073;-57
2021/05/25 06:23:35;;;;;;;3.40;1.33;;;;;;;11.56;100.00;96466.03;5022096;28;20530;-56
2021/05/25 06:26:04;;;;;;;3.38;1.70;;;;;;;11.43;100.00;96469.09;5026560;28;20091;-57
2021/05/25 06:28:32;;;;;;;4.30;1.88;;;;;;;11.43;100.00;96469.09;5024951;28;20065;-58
2021/05/25 06:31:01;;;;;;;4.90;1.63;;;;;;;11.63;100.00;96477.66;5029496;28;20081;-57
2021/05/25 06:33:29;;;;;;;3.15;1.73;;;;;;;11.85;100.00;96479.91;5026273;28;20069;-58
2021/05/25 06:35:57;;;;;;;6.13;2.00;;;;;;;11.49;100.00;96478.19;5027064;28;20092;-55
2021/05/25 06:38:26;;;;;;;2.53;1.40;;;;;;;10.80;100.00;96475.09;5025891;28;20068;-57
2021/05/25 06:40:54;;;;;;;4.18;1.88;;;;;;;11.23;100.00;96483.38;5028776;28;20103;-58
2021/05/25 06:43:22;;;;;;;9.65;1.90;;;;;;;11.42;100.00;96480.59;5021971;28;20092;-55
2021/05/25 06:45:50;;;;;;;2.78;1.60;;;;;;;11.20;100.00;96467.84;5028824;28;20065;-57
2021/05/25 06:48:36;;;;;;;6.57;1.92;;;;;;;11.48;100.00;96487.94;5021724;28;21060;-54
2021/05/25 06:51:07;;;;;;;3.85;1.75;;;;;;;11.91;100.00;96496.16;5029553;28;20069;-55
2021/05/25 06:53:36;;;;;;;4.32;1.70;;;;;;;11.81;100.00;96490.91;5027760;28;20521;-58
2021/05/25 06:56:05;;;;;;;5.05;1.60;;;;;;;11.72;100.00;96471.50;5027166;28;20522;-58
2021/05/25 06:58:50;;;;;;;8.65;1.70;;;;;;;11.48;100.00;96485.28;5023745;28;20111;-58
2021/05/25 07:01:18;;;;;;;4.88;1.60;;;;;;;11.09;100.00;96492.63;5028349;28;20139;-56
2021/05/25 07:03:47;;;;;;;5.45;1.83;;;;;;;11.48;100.00;96492.38;5010782;28;20073;-55
2021/05/25 07:06:15;;;;;;;7.32;1.70;;;;;;;11.90;100.00;96474.16;5027054;28;20060;-58
2021/05/25 07:08:44;;;;;;;4.88;1.90;;;;;;;12.20;100.00;96490.59;5030065;28;20076;-57
2021/05/25 07:11:12;;;;;;;2.72;1.48;;;;;;;11.78;100.00;96501.78;5006113;28;20100;-59
2021/05/25 07:13:40;;;;;;;3.90;1.85;;;;;;;12.18;100.00;96492.53;5024310;28;20077;-56
2021/05/25 07:16:08;;;;;;;3.60;1.23;;;;;;;11.68;100.00;96495.72;5025403;28;20077;-57
2021/05/25 07:18:36;;;;;;;3.60;1.58;;;;;;;11.74;100.00;96503.06;5029033;28;20080;-58
2021/05/25 07:21:04;;;;;;;4.25;1.60;;;;;;;11.74;100.00;96495.97;5024537;28;20546;-58
2021/05/25 07:23:33;;;;;;;5.43;1.92;;;;;;;12.02;100.00;96502.00;5027157;28;20129;-58
2021/05/25 07:26:03;;;;;;;2.28;1.60;;;;;;;11.75;100.00;96500.25;5020040;28;20073;-57
2021/05/25 07:28:31;;;;;;;5.75;1.60;;;;;;;12.43;100.00;96504.97;5026898;28;20440;-58
2021/05/25 07:31:00;;;;;;;3.33;1.50;;;;;;;12.64;100.00;96509.06;5021212;28;20080;-56
2021/05/25 07:33:28;;;;;;;3.53;1.40;;;;;;;12.07;100.00;96489.16;5031682;28;20527;-58
2021/05/25 07:35:56;;;;;;;5.47;1.85;;;;;;;12.16;100.00;96497.16;5023522;28;20369;-58
2021/05/25 07:38:24;;;;;;;2.20;1.55;;;;;;;11.81;100.00;96496.19;5023472;28;20095;-56
2021/05/25 07:40:52;;;;;;;3.30;1.45;;;;;;;12.05;100.00;96492.97;5024322;28;20069;-55
2021/05/25 07:43:21;;;;;;;2.50;1.45;;;;;;;12.46;100.00;96491.44;5027035;28;20072;-56
2021/05/25 07:45:49;;;;;;;4.90;1.40;;;;;;;12.76;100.00;96489.28;5026598;28;20073;-56
2021/05/25 07:48:17;;;;;;;3.70;1.55;;;;;;;12.91;96.58;96481.59;5028804;28;20123;-52
2021/05/25 07:50:45;;;;;;;3.80;1.27;;;;;;;12.95;100.00;96486.41;5024337;28;20084;-54
2021/05/25 07:53:13;;;;;;;5.20;1.67;;;;;;;12.44;100.00;96484.63;5026973;28;20057;-57
2021/05/25 07:55:41;;;;;;;5.25;1.20;;;;;;;12.14;100.00;96483.25;5023528;28;20424;-57
2021/05/25 07:58:09;;;;;;;2.45;1.58;;;;;;;11.78;100.00;96481.47;5022148;28;20084;-58
2021/05/25 08:00:38;;;;;;;4.15;1.63;;;;;;;11.98;100.00;96482.16;5030394;28;20103;-58
2021/05/25 08:03:06;;;;;;;4.00;1.70;;;;;;;11.67;97.15;96492.25;5024571;28;20062;-56
2021/05/25 08:05:34;;;;;;;2.72;1.52;;;;;;;11.37;100.00;96493.44;5026256;28;20080;-54
2021/05/25 08:08:03;;;;;;;5.88;1.88;;;;;;;11.35;99.49;96490.94;5025556;28;20053;-57
2021/05/25 08:10:31;;;;;;;5.05;1.75;;;;;;;11.56;100.00;96508.31;5025187;28;20067;-58
2021/05/25 08:13:00;;;;;;;3.53;1.40;;;;;;;11.34;97.77;96505.13;5018799;28;20479;-53
2021/05/25 08:15:31;;;;;;;5.82;1.95;;;;;;;11.50;100.00;96504.47;5032235;28;20084;-56
2021/05/25 08:18:07;;;;;;;3.92;1.60;;;;;;;11.47;100.00;96515.31;5023771;28;20543;-57
2021/05/25 08:20:36;;;;;;;1.70;1.60;;;;;;;11.34;100.00;96518.31;5022946;28;20069;-58
2021/05/25 08:23:24;;;;;;;4.32;2.10;;;;;;;11.47;100.00;96504.75;5024588;28;20065;-56
2021/05/25 08:25:52;;;;;;;3.53;1.70;;;;;;;12.32;100.00;96502.59;5025285;28;20069;-56
2021/05/25 08:28:20;;;;;;;4.00;1.85;;;;;;;12.38;92.68;96498.47;5021491;28;20065;-58
2021/05/25 08:30:48;;;;;;;3.40;1.70;;;;;;;12.55;100.00;96494.94;5028195;28;20088;-59
2021/05/25 08:33:18;;;;;;;3.15;1.40;;;;;;;12.28;100.00;96503.84;5020952;28;20609;-56
2021/05/25 08:35:48;;;;;;;3.22;1.90;;;;;;;11.90;100.00;96505.84;5028289;28;20126;-56
2021/05/25 08:38:19;;;;;;;5.63;1.50;;;;;;;12.10;99.69;96499.44;5023572;28;20065;-58
2021/05/25 08:40:48;;;;;;;4.85;1.90;;;;;;;12.33;100.00;96513.00;5026791;28;20079;-59
2021/05/25 08:43:16;;;;;;;3.78;1.65;;;;;;;12.55;100.00;96509.00;5021772;28;20068;-55
2021/05/25 08:45:44;;;;;;;2.40;1.70;;;;;;;12.30;100.00;96513.31;5032258;28;20549;-57
2021/05/25 08:48:12;;;;;;;4.88;1.70;;;;;;;12.98;89.98;96511.75;5020253;28;20104;-56
2021/05/25 08:50:53;;;;;;;6.57;1.60;;;;;;;12.71;97.49;96505.63;5029666;28;20076;-58
2021/05/25 08:53:21;;;;;;;2.60;1.60;;;;;;;12.62;89.43;96497.81;5022266;28;20057;-56
2021/05/25 08:55:51;;;;;;;2.47;1.48;;;;;;;12.95;79.48;96482.94;5026002;28;20069;-58
2021/05/25 08:58:20;;;;;;;2.22;1.30;;;;;;;13.20;71.23;96489.16;5030680;28;20057;-55
2021/05/25 09:00:49;;;;;;;1.85;1.58;;;;;;;13.37;71.50;96482.94;5027985;28;20092;-55
2021/05/25 09:03:18;;;;;;;3.30;1.20;;;;;;;13.51;70.73;96505.34;5023808;28;21532;-57
2021/05/25 09:05:51;;;;;;;2.42;1.30;;;;;;;13.01;71.80;96514.91;5023693;28;20091;-57
2021/05/25 09:08:21;;;;;;;2.35;1.48;;;;;;;12.71;70.33;96512.75;5027673;28;20065;-52
2021/05/25 09:10:51;;;;;;;3.07;1.67;;;;;;;13.51;81.57;96502.69;5022048;28;20148;-55
2021/05/25 09:13:20;;;;;;;1.63;1.30;;;;;;;13.65;68.04;96494.09;5022440;28;20511;-57
2021/05/25 09:15:50;;;;;;;1.92;1.35;;;;;;;13.86;68.05;96504.25;5023286;28;20460;-58
2021/05/25 09:18:19;;;;;;;1.55;1.30;;;;;;;13.32;70.97;96516.19;5040866;22;20456;-61
2021/05/25 09:20:50;;;;;;;3.47;1.40;;;;;;;13.37;78.05;96501.50;5026842;28;20072;-67
2021/05/25 09:23:21;;;;;;;2.58;1.60;;;;;;;13.27;64.25;96524.63;5023689;28;20061;-64
2021/05/25 09:25:53;;;;;;;3.83;1.63;;;;;;;13.23;69.93;96513.50;5023235;28;20068;-64
2021/05/25 09:28:22;;;;;;;2.92;1.42;;;;;;;13.28;65.73;96491.84;5026507;28;20471;-64
2021/05/25 09:30:51;;;;;;;3.17;1.13;;;;;;;13.16;70.48;96511.66;5026858;28;20084;-64
2021/05/25 09:33:22;;;;;;;3.25;1.50;;;;;;;13.38;68.50;96512.91;5026954;28;20068;-65
2021/05/25 09:35:52;;;;;;;3.97;1.40;;;;;;;13.87;76.58;96521.81;5024855;28;20061;-65
2021/05/25 09:38:23;;;;;;;4.50;1.37;;;;;;;13.84;75.30;96516.00;5028350;28;20249;-64
2021/05/25 09:40:51;;;;;;;;;;;;;;;13.75;72.86;96518.63;5034323;28;20483;-66
2021/05/25 09:43:21;;;;;;;2.20;1.30;;;;;;;13.64;69.01;96518.13;5029686;28;19955;-64
2021/05/25 09:46:00;;;;;;;3.22;1.63;;;;;;;14.04;60.71;96508.56;5024726;28;20078;-66
2021/05/25 09:48:30;;;;;;;7.07;1.60;;;;;;;13.95;74.56;96513.03;5032943;28;20510;-63
2021/05/25 09:50:58;;;;;;;2.97;1.70;;;;;;;13.37;70.54;96501.50;5024293;28;20065;-65
2021/05/25 09:53:30;;;;;;;3.63;1.65;;;;;;;13.85;76.19;96501.75;5032775;28;20068;-63
2021/05/25 09:55:59;;;;;;;1.85;1.20;;;;;;;14.11;68.44;96504.25;5024347;28;20535;-64
2021/05/25 09:58:38;;;;;;;4.93;1.45;;;;;;;14.00;76.68;96513.38;5026388;28;20546;-63
2021/05/25 10:01:10;;;;;;;3.92;1.50;;;;;;;13.88;77.96;96510.22;5031880;28;20084;-65
2021/05/25 10:03:46;;;;;;;3.95;1.30;;;;;;;13.45;75.94;96511.28;5030766;28;20093;-64
2021/05/25 10:06:14;;;;;;;2.30;1.60;;;;;;;13.45;66.40;96514.75;5024236;28;20072;-65
2021/05/25 10:08:44;;;;;;;6.38;1.85;;;;;;;13.71;85.07;96519.97;5030927;28;20076;-64
2021/05/25 10:11:15;;;;;;;1.27;1.17;;;;;;;13.43;67.43;96503.50;5022427;28;20069;-66
2021/05/25 10:13:44;;;;;;;3.03;1.50;;;;;;;13.54;70.26;96510.31;5025376;28;20065;-64
2021/05/25 10:16:18;;;;;;;4.57;1.70;;;;;;;13.69;83.69;96515.81;5025214;28;20068;-65
2021/05/25 10:19:01;;;;;;;2.67;1.67;;;;;;;13.49;74.16;96505.50;5028949;28;20557;-64
2021/05/25 10:21:30;;;;;;;1.40;1.20;;;;;;;13.64;74.06;96499.56;5024673;28;20158;-64
2021/05/25 10:24:02;;;;;;;3.05;1.38;;;;;;;13.55;66.71;96501.38;5026417;28;20096;-65
2021/05/25 10:26:54;;;;;;;3.17;1.55;;;;;;;14.11;70.35;96517.50;5023635;28;20096;-63
2021/05/25 10:29:22;;;;;;;3.35;1.20;;;;;;;13.77;70.41;96505.25;5028932;28;20069;-65
2021/05/25 10:31:57;;;;;;;2.38;1.23;;;;;;;14.58;80.86;96501.75;5025500;28;20535;-64
2021/05/25 10:34:32;;;;;;;3.67;1.40;;;;;;;14.60;82.79;96512.22;5029463;28;20064;-64
2021/05/25 10:37:03;;;;;;;1.50;1.08;;;;;;;14.09;73.79;96501.78;5027142;28;20085;-66
2021/05/25 10:39:37;;;;;;;2.38;1.17;;;;;;;14.10;76.08;96500.78;5027949;28;20077;-64
2021/05/25 10:42:29;;;;;;;1.50;1.27;;;;;;;14.01;74.79;96507.09;5026985;28;20118;-63
2021/05/25 10:45:18;;;;;;;1.90;1.38;;;;;;;13.87;78.68;96505.91;5030991;28;20436;-65
2021/05/25 10:48:01;;;;;;;2.17;1.50;;;;;;;14.38;72.61;96497.78;5024374;28;20557;-63
2021/05/25 10:50:33;;;;;;;2.05;1.85;;;;;;;14.19;73.19;96517.53;5027351;28;20061;-63
2021/05/25 10:53:26;;;;;;;3.10;1.48;;;;;;;14.48;64.67;96528.44;5033726;28;20075;-66
2021/05/25 10:55:56;;;;;;;4.07;1.27;;;;;;;13.89;71.43;96527.78;5030981;28;20057;-65
2021/05/25 10:58:29;;;;;;;2.35;1.60;;;;;;;14.32;89.16;96515.22;5027258;28;20061;-64
2021/05/25 11:00:58;;;;;;;3.65;1.38;;;;;;;14.58;75.08;96527.47;5039582;28;20060;-65
2021/05/25 11:03:26;;;;;;;3.10;1.55;;;;;;;13.88;71.06;96514.69;5025693;28;20439;-64
2021/05/25 11:05:56;;;;;;;1.85;1.50;;;;;;;14.50;74.10;96523.03;5022483;28;20084;-64
2021/05/25 11:08:37;;;;;;;1.45;1.30;;;;;;;13.97;64.78;96514.53;5031026;28;20065;-66
2021/05/25 11:11:11;;;;;;;2.05;1.30;;;;;;;13.88;67.35;96509.38;5025819;28;20083;-64
2021/05/25 11:13:41;;;;;;;2.35;1.27;;;;;;;14.02;68.98;96514.88;5032773;28;20077;-66
2021/05/25 11:16:13;;;;;;;1.35;1.23;;;;;;;14.01;67.65;96515.88;5030313;28;20459;-65
2021/05/25 11:18:45;;;;;;;1.60;1.33;;;;;;;14.15;61.72;96482.56;5029181;28;20077;-64
2021/05/25 11:21:46;;;;;;;2.65;1.58;;;;;;;14.52;70.39;96485.69;5032053;28;20072;-64
2021/05/25 11:24:31;;;;;;;3.28;1.65;;;;;;;14.56;60.89;96506.44;5029666;28;20230;-65
2021/05/25 11:27:04;;;;;;;3.03;1.30;;;;;;;14.33;53.03;96470.94;5028138;28;20073;-65
2021/05/25 11:29:34;;;;;;;2.97;1.33;;;;;;;15.29;71.11;96493.94;5008724;28;20095;-62
2021/05/25 11:32:05;;;;;;;1.98;1.40;;;;;;;14.58;55.60;96495.63;5039895;28;20076;-65
2021/05/25 11:34:33;;;;;;;1.60;1.50;;;;;;;14.65;63.24;96505.41;5023427;28;20075;-65
2021/05/25 11:37:03;;;;;;;3.38;1.42;;;;;;;14.62;60.56;96508.38;5031334;28;20076;-65
2021/05/25 11:39:34;;;;;;;1.35;1.25;;;;;;;15.03;55.59;96510.13;5037208;28;20072;-64
2021/05/25 11:42:06;;;;;;;2.78;1.50;;;;;;;15.47;62.71;96506.97;5027478;28;20068;-64
2021/05/25 11:44:36;;;;;;;1.65;1.30;;;;;;;15.20;53.39;96487.81;5031678;28;20057;-64
2021/05/25 11:47:06;;;;;;;2.80;1.30;;;;;;;14.76;54.04;96472.34;5029699;28;20083;-65
2021/05/25 11:49:36;;;;;;;2.67;1.50;;;;;;;14.54;53.86;96481.88;5029991;28;21389;-66